Time;durP1;ratioP1;P1;durP2;ratioP2;P2;SDS_P1;SDS_P2;PMS_P1;PMS_P2;Temp;Humidity;BMP_temperature;BMP_pressure;BME280_temperature;BME280_humidity;BME280_pressure;Samples;Min_cycle;Max_cycle;Signal;HPM_P1;HPM_P2
2022/01/08 00:01:09;;;;;;;6.30;5.05;;;3.20;99.90;;;;;;4983456;28;20205;-71
2022/01/08 00:03:36;;;;;;;8.63;5.80;;;3.20;99.90;;;;;;4999381;28;20685;-71
2022/01/08 00:06:02;;;;;;;6.35;5.75;;;3.20;99.90;;;;;;5000180;28;20314;-71
2022/01/08 00:08:29;;;;;;;6.43;4.45;;;3.20;99.90;;;;;;5000010;28;20203;-71
2022/01/08 00:10:56;;;;;;;7.65;5.82;;;3.20;99.90;;;;;;4999179;28;20564;-70
2022/01/08 00:13:22;;;;;;;5.20;4.70;;;3.20;99.90;;;;;;4998163;28;20182;-70
2022/01/08 00:15:49;;;;;;;7.95;5.47;;;3.20;99.90;;;;;;4999235;28;20203;-71
2022/01/08 00:18:15;;;;;;;6.82;5.15;;;3.20;99.90;;;;;;4997403;28;20217;-71
2022/01/08 00:20:42;;;;;;;5.95;4.93;;;3.20;99.90;;;;;;4997196;28;20248;-71
2022/01/08 00:23:08;;;;;;;14.10;5.85;;;3.20;99.90;;;;;;4997396;28;20238;-70
2022/01/08 00:25:35;;;;;;;10.38;5.95;;;3.20;99.90;;;;;;4996872;28;20198;-71
2022/01/08 00:28:01;;;;;;;4.97;4.47;;;3.20;99.90;;;;;;4995620;28;20621;-71
2022/01/08 00:30:30;;;;;;;4.75;4.10;;;3.20;99.90;;;;;;4982617;28;20199;-71
2022/01/08 00:32:58;;;;;;;5.32;4.82;;;3.30;99.90;;;;;;4998066;28;20285;-71
2022/01/08 00:35:29;;;;;;;4.90;4.35;;;3.30;99.90;;;;;;4999248;28;20619;-70
2022/01/08 00:37:56;;;;;;;4.68;3.92;;;3.30;99.90;;;;;;4998985;28;20203;-70
2022/01/08 00:40:23;;;;;;;7.72;3.63;;;3.30;99.90;;;;;;5000129;28;20206;-71
2022/01/08 00:42:49;;;;;;;3.92;3.50;;;3.30;99.90;;;;;;5000346;28;20222;-70
2022/01/08 00:45:16;;;;;;;6.30;4.00;;;3.40;99.90;;;;;;4999165;28;20285;-71
2022/01/08 00:47:43;;;;;;;4.53;3.25;;;3.40;99.90;;;;;;4999448;28;20210;-71
2022/01/08 00:50:12;;;;;;;5.05;3.55;;;3.50;99.90;;;;;;5000826;28;20659;-70
2022/01/08 00:52:42;;;;;;;2.97;2.60;;;3.50;99.90;;;;;;5000794;28;20549;-70
2022/01/08 00:55:09;;;;;;;3.05;2.85;;;3.60;99.90;;;;;;5000819;28;20207;-70
2022/01/08 00:57:36;;;;;;;3.15;2.85;;;3.60;99.90;;;;;;5000488;28;20226;-70
2022/01/08 01:00:06;;;;;;;6.88;2.65;;;3.70;99.90;;;;;;4999969;28;20233;-71
2022/01/08 01:02:33;;;;;;;6.25;2.55;;;3.70;99.90;;;;;;4999303;28;20214;-70
2022/01/08 01:04:59;;;;;;;3.63;2.50;;;3.80;99.90;;;;;;5000983;28;20274;-71
2022/01/08 01:07:26;;;;;;;5.50;2.53;;;3.80;99.90;;;;;;4999773;28;20222;-71
2022/01/08 01:09:52;;;;;;;2.40;2.20;;;3.90;99.90;;;;;;5002125;28;20201;-70
2022/01/08 01:12:22;;;;;;;3.70;2.50;;;3.90;99.90;;;;;;5001438;28;20285;-71
2022/01/08 01:14:48;;;;;;;2.85;2.15;;;3.90;99.90;;;;;;5002908;28;20262;-71
2022/01/08 01:17:15;;;;;;;11.68;2.83;;;3.90;99.90;;;;;;5000421;28;20285;-70
2022/01/08 01:19:41;;;;;;;4.57;2.42;;;3.90;99.90;;;;;;5001085;28;20261;-71
2022/01/08 01:22:08;;;;;;;5.50;2.30;;;3.90;99.90;;;;;;4983474;28;20764;-71
2022/01/08 01:24:37;;;;;;;9.18;2.05;;;3.90;99.90;;;;;;5007377;28;20337;-73
2022/01/08 01:29:49;;;;;;;7.80;2.85;;;3.90;99.90;;;;;;4970678;28;20321;-70
2022/01/08 01:43:26;;;;;;;2.25;1.90;;;3.90;99.90;;;;;;5000952;28;20297;-70
2022/01/08 01:48:38;;;;;;;7.97;2.80;;;3.80;99.90;;;;;;5001560;28;20186;-72
2022/01/08 01:51:04;;;;;;;5.90;2.88;;;3.80;99.90;;;;;;5002519;28;20357;-71
2022/01/08 01:53:34;;;;;;;3.60;2.65;;;3.70;99.90;;;;;;5002523;28;20198;-71
2022/01/08 01:56:00;;;;;;;3.58;2.47;;;3.70;99.90;;;;;;5004154;28;20206;-72
2022/01/08 01:58:26;;;;;;;3.40;2.22;;;3.60;99.90;;;;;;5000310;28;20213;-73
2022/01/08 02:00:54;;;;;;;3.22;2.95;;;3.60;99.90;;;;;;5003478;28;20203;-71
2022/01/08 02:03:20;;;;;;;6.70;3.67;;;3.60;99.90;;;;;;5002235;28;20233;-71
2022/01/08 02:05:47;;;;;;;3.08;2.30;;;3.50;99.90;;;;;;5000962;28;20200;-71
2022/01/08 02:08:13;;;;;;;4.72;2.80;;;3.50;99.90;;;;;;4983234;28;20222;-72
2022/01/08 02:10:40;;;;;;;4.40;3.45;;;3.60;99.90;;;;;;5001033;28;20202;-72
2022/01/08 02:13:06;;;;;;;5.93;3.53;;;3.50;99.90;;;;;;5000994;28;20309;-71
2022/01/08 02:15:33;;;;;;;3.85;2.88;;;3.50;99.90;;;;;;5004507;28;20690;-72
2022/01/08 02:17:59;;;;;;;5.10;3.15;;;3.50;99.90;;;;;;4982988;28;20221;-71
2022/01/08 02:20:25;;;;;;;5.13;2.95;;;3.50;99.90;;;;;;5000729;28;20708;-71
2022/01/08 02:22:51;;;;;;;3.90;2.55;;;3.50;99.90;;;;;;5000280;28;20249;-72
2022/01/08 02:25:22;;;;;;;5.00;2.60;;;3.40;99.90;;;;;;5001896;28;20195;-71
2022/01/08 02:27:48;;;;;;;3.35;2.53;;;3.50;99.90;;;;;;5001305;28;20720;-71
2022/01/08 02:30:15;;;;;;;3.30;2.60;;;3.40;99.90;;;;;;5001465;28;20206;-71
2022/01/08 02:32:42;;;;;;;4.18;2.78;;;3.40;99.90;;;;;;5004373;28;20294;-71
2022/01/08 02:35:09;;;;;;;3.20;2.08;;;3.40;99.90;;;;;;5005492;28;20278;-71
2022/01/08 02:37:35;;;;;;;3.78;3.08;;;3.40;99.90;;;;;;5002343;28;20206;-71
2022/01/08 02:40:05;;;;;;;2.47;2.28;;;3.30;99.90;;;;;;5002228;28;20199;-70
2022/01/08 02:42:38;;;;;;;2.50;2.30;;;3.30;99.90;;;;;;5004649;28;20234;-70
2022/01/08 02:45:07;;;;;;;3.63;2.40;;;3.20;99.90;;;;;;5001523;28;20254;-70
2022/01/08 02:47:33;;;;;;;5.82;3.28;;;3.20;99.90;;;;;;5001027;28;20311;-70
2022/01/08 02:50:00;;;;;;;8.02;3.40;;;3.20;99.90;;;;;;5000598;28;20201;-70
2022/01/08 02:52:26;;;;;;;5.50;2.40;;;3.20;99.90;;;;;;5000368;28;20207;-70
2022/01/08 02:54:52;;;;;;;2.83;2.55;;;3.20;99.90;;;;;;5000400;28;20199;-70
2022/01/08 02:57:19;;;;;;;2.35;2.25;;;3.20;99.90;;;;;;5001665;28;20289;-70
2022/01/08 02:59:45;;;;;;;2.22;2.08;;;3.20;99.90;;;;;;4983780;28;20207;-70
2022/01/08 03:02:12;;;;;;;3.45;2.30;;;3.20;99.90;;;;;;5001420;28;20222;-71
2022/01/08 03:04:39;;;;;;;3.53;2.20;;;3.20;99.90;;;;;;5000674;28;20203;-71
2022/01/08 03:07:06;;;;;;;2.38;2.15;;;3.20;99.90;;;;;;5000654;28;20277;-72
2022/01/08 03:09:37;;;;;;;1.75;1.65;;;3.20;99.90;;;;;;5000693;28;20206;-71
2022/01/08 03:12:03;;;;;;;3.40;2.00;;;3.20;99.90;;;;;;5000766;28;20282;-71
2022/01/08 03:14:30;;;;;;;3.15;1.88;;;3.20;99.90;;;;;;5000682;28;20297;-71
2022/01/08 03:16:56;;;;;;;2.10;1.70;;;3.20;99.90;;;;;;5000542;28;20293;-71
2022/01/08 03:19:23;;;;;;;3.83;2.10;;;3.20;99.90;;;;;;4999151;28;20202;-71
2022/01/08 03:21:53;;;;;;;3.25;1.70;;;3.20;99.90;;;;;;4999166;28;20301;-71
2022/01/08 03:24:29;;;;;;;3.80;2.30;;;3.20;99.90;;;;;;4981339;28;20229;-71
2022/01/08 03:26:56;;;;;;;1.98;1.88;;;3.20;99.90;;;;;;4998850;28;20179;-71
2022/01/08 03:29:23;;;;;;;3.08;1.83;;;3.20;99.90;;;;;;4996762;28;20203;-71
2022/01/08 03:31:49;;;;;;;2.30;1.95;;;3.20;99.90;;;;;;4998569;28;20202;-71
2022/01/08 03:34:16;;;;;;;2.35;2.15;;;3.20;99.90;;;;;;4997844;28;20203;-71
2022/01/08 03:36:42;;;;;;;1.90;1.80;;;3.20;99.90;;;;;;4999990;28;20202;-71
2022/01/08 03:39:09;;;;;;;2.53;2.33;;;3.20;99.90;;;;;;5000194;28;20607;-70
2022/01/08 03:41:36;;;;;;;2.15;2.05;;;3.20;99.90;;;;;;5001253;28;20202;-70
2022/01/08 03:44:03;;;;;;;2.85;2.60;;;3.20;99.90;;;;;;5000038;28;20229;-71
2022/01/08 03:46:34;;;;;;;3.83;2.92;;;3.20;99.90;;;;;;4985014;28;20206;-71
2022/01/08 03:51:27;;;;;;;3.03;2.70;;;3.20;99.90;;;;;;4999746;28;20205;-70
2022/01/08 03:53:53;;;;;;;3.10;2.90;;;3.20;99.90;;;;;;4999982;28;20353;-70
2022/01/08 03:56:20;;;;;;;2.20;2.08;;;3.20;99.90;;;;;;4983321;28;20211;-70
2022/01/08 03:58:46;;;;;;;2.72;2.50;;;3.20;99.90;;;;;;4998334;28;20237;-70
2022/01/08 04:01:13;;;;;;;2.60;2.40;;;3.20;99.90;;;;;;4998918;28;20218;-70
2022/01/08 04:03:39;;;;;;;2.95;2.72;;;3.10;99.90;;;;;;4998533;28;20223;-71
2022/01/08 04:06:06;;;;;;;3.70;2.55;;;3.10;99.90;;;;;;4997135;28;20764;-70
2022/01/08 04:08:33;;;;;;;3.08;2.55;;;3.10;99.90;;;;;;4981233;28;20207;-70
2022/01/08 04:11:00;;;;;;;6.70;2.67;;;3.10;99.90;;;;;;4998732;28;20240;-70
2022/01/08 04:13:29;;;;;;;4.78;2.67;;;3.10;99.90;;;;;;4998723;28;20262;-70
2022/01/08 04:16:08;;;;;;;4.47;2.15;;;3.10;99.90;;;;;;4999855;28;20210;-70
2022/01/08 04:18:34;;;;;;;2.13;2.03;;;3.10;99.90;;;;;;5000247;28;20352;-70
2022/01/08 04:23:30;;;;;;;2.17;1.63;;;3.10;99.90;;;;;;5000333;28;20207;-70
2022/01/08 04:25:57;;;;;;;1.90;1.80;;;3.10;99.90;;;;;;5000581;28;20221;-70
2022/01/08 04:28:23;;;;;;;2.45;1.88;;;3.10;99.90;;;;;;5000556;28;20281;-70
2022/01/08 04:30:50;;;;;;;2.13;2.03;;;3.10;99.90;;;;;;5001021;28;20210;-70
2022/01/08 04:33:16;;;;;;;1.92;1.40;;;3.10;99.90;;;;;;5000249;28;20297;-70
2022/01/08 04:35:42;;;;;;;1.40;1.30;;;3.00;99.90;;;;;;5000754;28;20537;-70
2022/01/08 04:38:09;;;;;;;1.23;1.13;;;3.00;99.90;;;;;;5001203;28;20202;-70
2022/01/08 04:40:35;;;;;;;1.33;1.23;;;3.00;99.90;;;;;;4999765;28;20718;-70
2022/01/08 04:43:02;;;;;;;1.30;0.98;;;3.00;99.90;;;;;;4999551;28;20223;-69
2022/01/08 04:45:30;;;;;;;0.70;0.70;;;3.00;99.90;;;;;;5001056;28;20267;-70
2022/01/08 04:47:58;;;;;;;2.20;2.00;;;3.00;99.90;;;;;;5000130;28;20222;-69
2022/01/08 04:50:26;;;;;;;2.70;1.20;;;3.00;99.90;;;;;;5000332;28;20211;-69
2022/01/08 04:52:54;;;;;;;0.82;0.82;;;3.00;99.90;;;;;;5000516;28;20262;-70
2022/01/08 04:55:20;;;;;;;0.82;0.82;;;3.00;99.90;;;;;;5000103;28;20207;-70
2022/01/08 04:57:47;;;;;;;0.98;0.60;;;3.00;99.90;;;;;;4998754;28;20679;-71
2022/01/08 05:00:16;;;;;;;0.85;0.80;;;3.00;99.90;;;;;;5000963;28;20256;-70
2022/01/08 05:02:43;;;;;;;2.75;2.55;;;3.00;99.90;;;;;;5002141;28;20305;-71
2022/01/08 05:05:10;;;;;;;0.73;0.73;;;3.00;99.90;;;;;;5003045;28;20194;-70
2022/01/08 05:07:37;;;;;;;3.00;2.80;;;2.90;99.90;;;;;;5003789;28;20293;-70
2022/01/08 05:10:05;;;;;;;3.08;2.00;;;2.90;99.90;;;;;;5003052;28;20289;-70
2022/01/08 05:12:31;;;;;;;2.15;2.03;;;2.80;99.90;;;;;;5003446;28;20667;-71
2022/01/08 05:14:58;;;;;;;1.77;1.67;;;2.80;99.90;;;;;;5001582;28;20261;-70
2022/01/08 05:17:29;;;;;;;1.58;1.48;;;2.80;99.90;;;;;;5003860;28;20348;-69
2022/01/08 05:19:59;;;;;;;1.10;0.95;;;2.80;99.90;;;;;;5002776;28;20206;-69
2022/01/08 05:22:28;;;;;;;5.40;3.50;;;2.80;99.90;;;;;;5002123;28;20230;-70
2022/01/08 05:24:56;;;;;;;10.23;6.38;;;2.80;99.90;;;;;;5003867;28;20213;-70
2022/01/08 05:27:23;;;;;;;5.25;4.25;;;2.90;99.90;;;;;;5004423;28;20285;-70
2022/01/08 05:29:51;;;;;;;10.82;5.95;;;2.80;99.90;;;;;;5003463;28;20211;-70
2022/01/08 05:32:19;;;;;;;2.90;2.70;;;2.80;99.90;;;;;;5003706;28;20206;-71
2022/01/08 05:34:50;;;;;;;1.55;1.40;;;2.80;99.90;;;;;;5003944;28;20199;-71
2022/01/08 05:37:18;;;;;;;2.10;1.77;;;2.80;99.90;;;;;;5005162;28;20194;-73
2022/01/08 05:39:47;;;;;;;1.65;1.50;;;2.90;99.90;;;;;;5006032;28;20206;-71
2022/01/08 05:42:13;;;;;;;4.55;1.55;;;2.90;99.90;;;;;;5005680;28;20203;-70
2022/01/08 05:44:40;;;;;;;2.30;2.10;;;2.90;99.90;;;;;;5006611;28;20202;-71
2022/01/08 05:47:06;;;;;;;2.45;2.25;;;2.90;99.90;;;;;;5006703;28;20199;-70
2022/01/08 05:49:33;;;;;;;2.67;2.47;;;2.90;99.90;;;;;;5005143;28;20560;-71
2022/01/08 05:51:59;;;;;;;5.57;2.67;;;2.90;99.90;;;;;;5007882;28;20681;-70
2022/01/08 05:54:26;;;;;;;10.57;6.20;;;2.90;99.90;;;;;;4990298;28;20282;-72
2022/01/08 05:56:52;;;;;;;3.50;2.17;;;2.90;99.90;;;;;;4989568;28;20667;-70
2022/01/08 05:59:21;;;;;;;7.90;3.42;;;2.90;99.90;;;;;;5007201;28;20206;-70
2022/01/08 06:01:47;;;;;;;1.25;1.15;;;2.90;99.90;;;;;;5006880;28;20207;-71
2022/01/08 06:04:13;;;;;;;8.23;4.78;;;2.90;99.90;;;;;;4989166;28;20245;-69
2022/01/08 06:06:40;;;;;;;5.25;3.75;;;2.80;99.90;;;;;;5005718;28;20218;-71
2022/01/08 06:09:09;;;;;;;5.63;2.35;;;2.80;99.90;;;;;;5007056;28;20209;-70
2022/01/08 06:11:35;;;;;;;1.58;1.48;;;2.80;99.90;;;;;;4989685;28;20344;-70
2022/01/08 06:14:02;;;;;;;2.60;2.40;;;2.80;99.90;;;;;;5006942;28;20206;-71
2022/01/08 06:16:35;;;;;;;1.98;1.50;;;2.80;99.90;;;;;;5006033;28;20202;-70
2022/01/08 06:19:12;;;;;;;2.17;1.38;;;2.80;99.90;;;;;;5006544;28;20202;-69
2022/01/08 06:21:38;;;;;;;7.20;1.10;;;2.80;99.90;;;;;;5006466;28;20298;-69
2022/01/08 06:24:06;;;;;;;4.05;1.45;;;2.90;99.90;;;;;;5006442;28;20249;-69
2022/01/08 06:26:33;;;;;;;1.98;1.00;;;2.90;99.90;;;;;;4987927;28;20198;-69
2022/01/08 06:28:59;;;;;;;2.63;2.03;;;2.90;99.90;;;;;;5004408;28;20206;-69
2022/01/08 06:31:26;;;;;;;1.67;1.58;;;2.90;99.90;;;;;;5005358;28;20194;-69
2022/01/08 06:33:53;;;;;;;3.97;1.88;;;2.90;99.90;;;;;;5002319;28;20714;-69
2022/01/08 06:36:22;;;;;;;3.03;1.40;;;2.90;99.90;;;;;;5003290;28;20214;-70
2022/01/08 06:38:49;;;;;;;3.28;1.10;;;2.90;99.90;;;;;;5003304;28;20213;-70
2022/01/08 06:41:16;;;;;;;1.05;0.95;;;2.90;99.90;;;;;;5002692;28;20225;-70
2022/01/08 06:43:43;;;;;;;1.17;1.08;;;3.00;99.90;;;;;;5004598;28;20229;-70
2022/01/08 06:46:09;;;;;;;6.88;1.60;;;3.00;99.90;;;;;;5002516;28;20246;-70
2022/01/08 06:48:35;;;;;;;1.45;0.90;;;3.00;99.90;;;;;;5002555;28;20202;-69
2022/01/08 06:51:02;;;;;;;4.80;1.40;;;3.00;99.90;;;;;;5003338;28;20195;-70
2022/01/08 06:53:29;;;;;;;2.88;1.33;;;2.90;99.90;;;;;;4986839;28;20258;-70
2022/01/08 06:55:55;;;;;;;2.33;0.88;;;2.90;99.90;;;;;;5003577;28;20348;-70
2022/01/08 06:58:24;;;;;;;3.95;1.40;;;2.90;99.90;;;;;;5003937;28;20209;-69
2022/01/08 07:00:51;;;;;;;1.70;1.60;;;2.90;99.90;;;;;;5004714;28;20572;-71
2022/01/08 07:03:17;;;;;;;1.40;1.30;;;2.90;99.90;;;;;;5001390;28;20321;-70
2022/01/08 07:05:44;;;;;;;5.85;1.70;;;2.80;99.90;;;;;;5001118;28;20578;-72
2022/01/08 07:08:10;;;;;;;2.40;1.20;;;2.80;99.90;;;;;;5001370;28;20202;-70
2022/01/08 07:10:37;;;;;;;3.05;1.23;;;2.80;99.90;;;;;;5001634;28;20210;-70
2022/01/08 07:13:04;;;;;;;2.85;2.65;;;2.80;99.90;;;;;;5002936;28;20642;-69
2022/01/08 07:15:30;;;;;;;3.10;2.15;;;2.80;99.90;;;;;;5003392;28;20198;-69
2022/01/08 07:17:57;;;;;;;1.58;1.35;;;2.80;99.90;;;;;;5000964;28;20214;-70
2022/01/08 07:20:24;;;;;;;2.00;1.70;;;2.80;99.90;;;;;;5002610;28;20210;-70
2022/01/08 07:22:50;;;;;;;2.00;1.40;;;2.80;99.90;;;;;;4982109;28;20235;-70
2022/01/08 07:25:17;;;;;;;4.20;2.70;;;2.80;99.90;;;;;;4980644;28;20282;-70
2022/01/08 07:27:44;;;;;;;4.22;2.25;;;2.80;99.90;;;;;;4983388;28;20287;-70
2022/01/08 07:30:11;;;;;;;3.15;2.95;;;2.80;99.90;;;;;;4963814;28;20251;-70
2022/01/08 07:32:45;;;;;;;1.70;1.60;;;2.80;99.90;;;;;;4964541;28;20291;-70
2022/01/08 07:35:14;;;;;;;2.80;1.90;;;2.80;99.90;;;;;;4964446;28;20191;-70
2022/01/08 07:37:42;;;;;;;1.65;1.55;;;2.80;99.90;;;;;;4961909;29;20564;-70
2022/01/08 07:40:11;;;;;;;1.38;1.27;;;2.70;99.90;;;;;;4978401;28;20286;-70
2022/01/08 07:42:38;;;;;;;2.35;1.20;;;2.70;99.90;;;;;;4965072;28;20204;-70
2022/01/08 07:45:06;;;;;;;3.65;1.55;;;2.70;99.90;;;;;;4963052;28;20200;-70
2022/01/08 07:47:32;;;;;;;1.80;1.65;;;2.70;99.90;;;;;;4960405;28;20309;-70
2022/01/08 07:49:59;;;;;;;2.00;1.50;;;2.70;99.90;;;;;;4960236;28;20254;-71
2022/01/08 07:52:25;;;;;;;2.20;1.70;;;2.70;99.90;;;;;;4961546;28;20247;-70
2022/01/08 07:54:52;;;;;;;4.35;1.88;;;2.80;99.90;;;;;;4961580;28;20215;-69
2022/01/08 07:57:18;;;;;;;7.85;5.07;;;2.80;99.90;;;;;;4961198;28;20212;-69
2022/01/08 07:59:45;;;;;;;3.00;2.80;;;2.80;99.90;;;;;;4960423;29;20298;-70
2022/01/08 08:02:14;;;;;;;5.78;2.70;;;2.80;99.90;;;;;;4961047;28;20222;-71
2022/01/08 08:04:41;;;;;;;4.18;2.35;;;2.80;99.90;;;;;;4961076;28;20230;-72
2022/01/08 08:07:08;;;;;;;3.10;2.15;;;2.80;99.90;;;;;;4961428;28;20751;-71
2022/01/08 08:09:34;;;;;;;3.42;1.73;;;2.90;99.90;;;;;;4960747;28;20215;-71
2022/01/08 08:12:01;;;;;;;2.80;2.50;;;2.90;99.90;;;;;;4962224;28;20204;-70
2022/01/08 08:14:27;;;;;;;10.38;2.97;;;2.90;99.90;;;;;;4968957;28;20274;-69
2022/01/08 08:16:55;;;;;;;8.30;2.80;;;2.90;99.90;;;;;;4981598;28;20670;-69
2022/01/08 08:19:21;;;;;;;5.78;2.13;;;2.90;99.90;;;;;;4980284;28;20207;-69
2022/01/08 08:21:48;;;;;;;2.88;1.90;;;2.80;99.90;;;;;;4987352;28;20238;-69
2022/01/08 08:24:18;;;;;;;3.58;2.13;;;2.80;99.90;;;;;;5001039;28;20765;-70
2022/01/08 08:26:45;;;;;;;2.35;1.63;;;2.90;99.90;;;;;;5000497;28;20360;-71
2022/01/08 08:29:11;;;;;;;3.35;2.10;;;2.80;99.90;;;;;;5001132;28;20203;-70
2022/01/08 08:31:40;;;;;;;5.18;2.60;;;2.90;99.90;;;;;;5000663;28;20568;-71
2022/01/08 08:34:12;;;;;;;2.75;1.80;;;2.90;99.90;;;;;;4999526;28;20202;-68
2022/01/08 08:36:39;;;;;;;7.07;2.90;;;2.90;99.90;;;;;;4998575;28;20191;-69
2022/01/08 08:39:05;;;;;;;7.93;2.35;;;2.90;99.90;;;;;;5000067;28;20870;-70
2022/01/08 08:41:34;;;;;;;4.32;2.85;;;2.90;99.90;;;;;;5000572;28;20226;-70
2022/01/08 08:44:00;;;;;;;7.13;3.75;;;2.90;99.90;;;;;;4999440;28;20218;-70
2022/01/08 08:46:26;;;;;;;5.43;2.80;;;2.90;99.90;;;;;;5000159;28;20203;-70
2022/01/08 08:48:53;;;;;;;5.78;3.97;;;2.90;99.90;;;;;;4999030;28;20564;-69
2022/01/08 08:51:22;;;;;;;5.38;3.05;;;3.00;99.90;;;;;;4999734;28;20253;-70
2022/01/08 08:53:48;;;;;;;3.58;2.80;;;3.00;99.90;;;;;;4999787;28;20357;-70
2022/01/08 08:56:15;;;;;;;7.07;3.45;;;2.90;99.90;;;;;;5000229;28;20345;-71
2022/01/08 08:58:41;;;;;;;6.78;3.85;;;2.90;99.90;;;;;;4998220;28;20254;-71
2022/01/08 09:01:08;;;;;;;4.88;3.80;;;2.90;99.90;;;;;;4999887;28;20206;-71
2022/01/08 09:03:34;;;;;;;10.27;4.63;;;2.90;99.90;;;;;;4998937;28;20226;-71
2022/01/08 09:06:02;;;;;;;4.57;3.10;;;2.90;99.90;;;;;;4998916;28;20218;-71
2022/01/08 09:08:29;;;;;;;7.18;5.32;;;2.90;99.90;;;;;;4998540;28;20194;-71
2022/01/08 09:10:55;;;;;;;4.00;3.60;;;2.90;99.90;;;;;;5000349;28;20202;-71
2022/01/08 09:13:24;;;;;;;9.48;4.60;;;2.90;99.90;;;;;;4999316;28;20202;-70
2022/01/08 09:15:51;;;;;;;7.85;5.88;;;2.90;99.90;;;;;;4999118;28;20210;-70
2022/01/08 09:18:18;;;;;;;9.02;5.93;;;2.90;99.90;;;;;;4998445;28;20540;-70
2022/01/08 09:20:44;;;;;;;4.53;3.38;;;2.90;99.90;;;;;;4997344;28;20206;-71
2022/01/08 09:23:11;;;;;;;5.63;3.92;;;2.90;99.90;;;;;;5000718;28;20241;-70
2022/01/08 09:25:37;;;;;;;8.57;3.85;;;2.90;99.90;;;;;;5001038;28;20285;-70
2022/01/08 09:28:04;;;;;;;3.75;3.45;;;2.90;99.90;;;;;;4984140;28;20270;-71
2022/01/08 09:30:31;;;;;;;3.92;3.40;;;3.00;99.90;;;;;;5000815;28;20260;-70
2022/01/08 09:32:57;;;;;;;6.00;3.67;;;3.00;99.90;;;;;;4983823;28;20209;-71
2022/01/08 09:35:25;;;;;;;8.70;3.60;;;3.10;99.90;;;;;;5000805;28;20692;-71
2022/01/08 09:37:52;;;;;;;4.40;3.97;;;3.10;99.90;;;;;;4999796;28;20207;-71
2022/01/08 09:40:21;;;;;;;6.65;3.63;;;3.30;99.90;;;;;;4998735;28;20207;-70
2022/01/08 09:42:49;;;;;;;5.22;3.83;;;3.30;99.90;;;;;;4998966;28;20297;-72
2022/01/08 09:45:15;;;;;;;7.35;3.65;;;3.30;99.90;;;;;;5000496;28;20226;-72
2022/01/08 09:47:42;;;;;;;5.63;3.13;;;3.50;99.90;;;;;;5004292;28;20266;-72
2022/01/08 09:50:09;;;;;;;8.38;3.63;;;3.40;99.90;;;;;;5002910;28;20206;-72
2022/01/08 09:52:36;;;;;;;4.43;3.55;;;3.50;99.90;;;;;;5004228;28;20294;-72
2022/01/08 09:55:06;;;;;;;6.38;3.00;;;3.60;99.90;;;;;;5002849;28;20625;-73
2022/01/08 09:57:33;;;;;;;3.83;2.90;;;3.60;99.90;;;;;;5000879;28;20250;-74
2022/01/08 10:00:00;;;;;;;6.38;3.38;;;3.60;99.90;;;;;;5001165;28;20206;-73
2022/01/08 10:02:27;;;;;;;5.90;3.75;;;3.60;99.90;;;;;;5001440;28;20557;-72
2022/01/08 10:05:19;;;;;;;7.75;2.78;;;3.60;99.90;;;;;;5004338;28;20589;-74
2022/01/08 10:08:00;;;;;;;5.95;3.00;;;3.60;99.90;;;;;;5003823;28;20301;-72
2022/01/08 10:10:27;;;;;;;6.60;3.00;;;3.50;99.90;;;;;;5004408;28;20214;-73
2022/01/08 10:13:01;;;;;;;7.25;3.60;;;3.60;99.90;;;;;;5004129;28;20626;-73
2022/01/08 10:18:32;;;;;;;23.92;14.07;;;3.60;99.90;;;;;;5001465;28;20237;-73
2022/01/08 10:21:02;;;;;;;3.15;2.42;;;3.50;99.90;;;;;;5000174;28;20413;-71
2022/01/08 10:23:31;;;;;;;8.15;3.85;;;3.50;99.90;;;;;;5001512;28;20210;-72
2022/01/08 10:26:08;;;;;;;31.40;16.10;;;3.50;99.90;;;;;;5005202;28;20195;-73
2022/01/08 10:28:45;;;;;;;12.40;6.97;;;3.40;99.90;;;;;;5007272;28;20202;-73
2022/01/08 10:31:19;;;;;;;10.15;5.30;;;3.50;99.90;;;;;;5003762;28;20654;-72
2022/01/08 10:33:51;;;;;;;7.90;3.58;;;3.50;99.90;;;;;;5001501;28;20232;-72
2022/01/08 10:36:27;;;;;;;5.03;2.75;;;3.50;99.90;;;;;;5001350;28;20661;-72
2022/01/08 10:38:55;;;;;;;4.18;3.10;;;3.60;99.90;;;;;;5001622;28;20201;-73
2022/01/08 10:41:23;;;;;;;6.30;4.15;;;3.70;99.90;;;;;;5002191;28;20210;-72
2022/01/08 10:44:07;;;;;;;5.30;2.65;;;3.70;99.90;;;;;;5002054;28;20305;-72
2022/01/08 10:46:34;;;;;;;8.65;4.20;;;3.80;99.90;;;;;;5001794;28;20198;-72
2022/01/08 10:49:00;;;;;;;10.10;4.90;;;3.90;99.90;;;;;;5000404;28;20206;-73
2022/01/08 10:51:34;;;;;;;4.88;3.92;;;4.00;99.90;;;;;;5005363;28;20205;-72
2022/01/08 10:54:08;;;;;;;5.82;5.30;;;4.10;99.90;;;;;;5002402;28;20269;-72
2022/01/08 10:56:40;;;;;;;3.40;2.08;;;4.40;99.90;;;;;;5004953;28;20272;-72
2022/01/08 10:59:09;;;;;;;8.50;2.53;;;4.60;99.90;;;;;;5005143;28;20268;-72
2022/01/08 11:02:00;;;;;;;2.95;2.20;;;4.60;99.90;;;;;;4987741;28;20203;-75
2022/01/08 11:04:42;;;;;;;3.45;2.72;;;4.30;99.90;;;;;;4984335;28;20278;-73
2022/01/08 11:07:22;;;;;;;4.47;2.67;;;4.20;99.90;;;;;;5008391;28;20218;-74
2022/01/08 11:09:51;;;;;;;4.50;2.78;;;4.20;99.90;;;;;;5006329;28;20189;-72
2022/01/08 11:12:28;;;;;;;3.67;2.67;;;4.00;99.90;;;;;;5002303;28;20655;-72
2022/01/08 11:15:12;;;;;;;4.32;3.33;;;4.00;99.90;;;;;;5001760;28;20277;-73
2022/01/08 11:17:41;;;;;;;4.60;2.55;;;3.90;99.90;;;;;;5001777;28;20640;-74
2022/01/08 11:20:09;;;;;;;8.80;4.63;;;3.80;99.90;;;;;;4985432;28;20293;-72
2022/01/08 11:22:41;;;;;;;4.28;2.85;;;3.90;99.90;;;;;;5001248;28;20238;-72
2022/01/08 11:25:11;;;;;;;3.80;2.92;;;3.90;99.90;;;;;;5002197;28;20215;-72
2022/01/08 11:27:41;;;;;;;10.70;2.97;;;3.90;99.90;;;;;;5001567;28;20214;-72
2022/01/08 11:30:31;;;;;;;8.82;3.22;;;3.90;99.90;;;;;;5001542;28;20199;-73
2022/01/08 11:33:05;;;;;;;4.40;3.25;;;4.00;99.90;;;;;;5000077;28;20313;-72
2022/01/08 11:35:34;;;;;;;6.82;3.50;;;4.00;99.90;;;;;;4982265;28;20203;-72
2022/01/08 11:38:04;;;;;;;4.78;3.60;;;4.00;99.90;;;;;;4999831;28;20214;-71
2022/01/08 11:40:32;;;;;;;7.07;3.35;;;3.90;99.90;;;;;;4999717;28;20210;-73
2022/01/08 11:43:01;;;;;;;4.93;3.30;;;3.80;99.90;;;;;;4998396;28;20206;-72
2022/01/08 11:45:32;;;;;;;3.90;2.80;;;3.70;99.90;;;;;;4998171;28;20596;-72
2022/01/08 11:48:01;;;;;;;5.97;3.63;;;3.70;99.90;;;;;;4999990;28;20618;-72
2022/01/08 11:50:31;;;;;;;3.65;3.15;;;3.70;99.90;;;;;;4999471;28;20281;-72
2022/01/08 11:53:18;;;;;;;6.55;3.25;;;3.70;99.90;;;;;;5001077;28;20270;-72
2022/01/08 11:55:59;;;;;;;7.07;3.42;;;3.80;99.90;;;;;;5000881;28;20801;-72
2022/01/08 11:58:35;;;;;;;4.55;2.55;;;3.80;99.90;;;;;;4983709;28;20203;-72
2022/01/08 12:01:11;;;;;;;3.88;2.30;;;3.90;99.90;;;;;;4997196;28;20280;-71
2022/01/08 12:03:39;;;;;;;3.58;2.70;;;4.00;99.90;;;;;;4998979;28;20249;-72
2022/01/08 12:06:34;;;;;;;4.63;3.05;;;4.00;99.90;;;;;;4998723;28;20222;-71
2022/01/08 12:12:06;;;;;;;1.67;1.58;;;4.10;99.90;;;;;;4990649;28;20336;-72
2022/01/08 12:14:41;;;;;;;2.38;2.17;;;4.10;99.90;;;;;;4998364;28;20210;-72
2022/01/08 12:17:12;;;;;;;6.40;2.30;;;4.10;99.90;;;;;;4996915;28;20206;-72
2022/01/08 12:19:43;;;;;;;3.60;1.85;;;4.10;99.90;;;;;;4999192;28;20297;-72
2022/01/08 12:22:16;;;;;;;3.63;2.70;;;4.10;99.90;;;;;;4999033;28;20235;-71
2022/01/08 12:24:43;;;;;;;3.70;2.00;;;4.10;99.90;;;;;;4998938;28;20213;-72
2022/01/08 12:27:37;;;;;;;3.97;2.20;;;3.90;99.90;;;;;;4999293;28;20199;-72
2022/01/08 12:30:19;;;;;;;2.53;2.10;;;3.90;99.90;;;;;;4997817;28;20206;-71
2022/01/08 12:32:49;;;;;;;1.60;1.50;;;3.80;99.90;;;;;;4999852;28;20201;-71
2022/01/08 12:35:20;;;;;;;8.68;2.10;;;3.80;99.90;;;;;;4998487;28;20305;-73
2022/01/08 12:38:21;;;;;;;5.63;2.20;;;3.80;99.90;;;;;;4998970;28;20279;-72
2022/01/08 12:40:49;;;;;;;5.47;2.17;;;3.90;99.90;;;;;;4998412;28;20198;-72
2022/01/08 12:43:33;;;;;;;2.42;2.22;;;3.90;99.90;;;;;;4997957;28;20210;-72
2022/01/08 12:46:22;;;;;;;6.20;2.40;;;4.00;99.90;;;;;;4998642;28;20290;-70
2022/01/08 12:49:04;;;;;;;2.97;2.25;;;4.30;99.90;;;;;;4998721;28;20183;-72
2022/01/08 12:51:48;;;;;;;2.42;2.28;;;4.40;99.90;;;;;;4998340;28;20228;-71
2022/01/08 12:54:17;;;;;;;2.10;2.00;;;4.50;99.90;;;;;;4998085;28;20203;-71
2022/01/08 12:56:49;;;;;;;3.38;2.20;;;4.30;99.90;;;;;;4979794;28;20209;-72
2022/01/08 12:59:16;;;;;;;2.38;2.17;;;4.30;99.90;;;;;;4997046;28;20202;-71
2022/01/08 13:01:50;;;;;;;3.45;2.55;;;4.30;99.90;;;;;;4997726;28;20198;-72
2022/01/08 13:04:19;;;;;;;2.13;1.90;;;4.20;99.90;;;;;;4997198;28;20218;-72
2022/01/08 13:06:46;;;;;;;2.92;2.72;;;4.10;99.90;;;;;;4997379;28;20249;-71
2022/01/08 13:09:13;;;;;;;3.65;3.22;;;4.20;99.90;;;;;;4980530;28;20285;-71
2022/01/08 13:11:41;;;;;;;6.53;3.28;;;4.20;99.90;;;;;;4996936;28;20211;-71
2022/01/08 13:14:14;;;;;;;5.05;3.00;;;4.20;99.90;;;;;;4998107;28;20211;-72
2022/01/08 13:16:53;;;;;;;4.28;3.42;;;4.20;99.90;;;;;;4997209;28;20199;-72
2022/01/08 13:19:24;;;;;;;3.67;2.75;;;4.20;99.90;;;;;;4999167;28;20210;-73
2022/01/08 13:21:53;;;;;;;5.97;3.25;;;4.30;99.90;;;;;;5001350;28;20234;-72
2022/01/08 13:24:26;;;;;;;3.22;2.70;;;4.40;99.90;;;;;;5001049;28;20265;-73
2022/01/08 13:27:05;;;;;;;3.42;3.13;;;4.40;99.90;;;;;;5001621;28;20693;-72
2022/01/08 13:29:39;;;;;;;7.85;3.13;;;4.30;99.90;;;;;;5002509;28;20243;-73
2022/01/08 13:32:14;;;;;;;7.05;5.70;;;4.30;99.90;;;;;;5004276;28;20190;-72